Terminal Aerodrome Forecast
Issued by NWS

Home | Current Version | Previous Version | Text Only | Print | Product List | Glossary On
Versions: 1 2 3 4 5 6 7 8 9 10 11 12 13 14 15
000
FTAK31 PANC 271121
TAFAAQ
TAF
PAAQ 271121Z 2712/2812 VRB04KT P6SM VCSH OVC035
     FM272100 16008KT P6SM VCSH BKN050
     FM280200 15010G18KT P6SM VCSH BKN045
     FM281100 13005KT P6SM VCSH BKN045=

USA.gov is the U.S. government's official web portal to all federal, state and local government web resources and services.